Grosse Isle, Canada
Current Conditions -  °F | °C
As of 9:00 AM on Friday 24 Oct 2014 (Local Time) from CYWG Reporting Station
Broken Clouds Broken Clouds  
Wind Chill: 50°   Ceiling: 23000
Heat Index: 50°   Visibility: 15mi
Dew Point: 37°   Wind: 12mph
Humidity: 62%   Direction: 200°SSW
Pressure: 29.67"   Gusts: NA
Location:  50.06°N, 97.44°W
Report Text: CYWG 241400Z 20010KT 15SM SCT140 BKN230 10/03 A2967 RMK AC3CI4 SLP051
Loading
Personal Weather Stations






























Interactive Weather Map
Tropical Storm Tracking
New forecast layout! Learn more

10-Day Weather Forecast

Advertisements
Track Severe Weather on mobile